Time;durP1;ratioP1;P1;durP2;ratioP2;P2;SDS_P1;SDS_P2;PMS_P1;PMS_P2;Temp;Humidity;BMP_temperature;BMP_pressure;BME280_temperature;BME280_humidity;BME280_pressure;Samples;Min_cycle;Max_cycle;Signal;HPM_P1;HPM_P2
2022/05/03 00:02:20;;;;;;;10.73;7.35;;;;;;;;;;5016583;28;20197;-56
2022/05/03 00:05:04;;;;;;;10.35;7.20;;;;;;;;;;5019621;28;20544;-57
2022/05/03 00:07:51;;;;;;;10.10;7.32;;;;;;;;;;5019012;28;20034;-56
2022/05/03 00:10:21;;;;;;;9.35;7.50;;;;;;;;;;5026143;28;20045;-57
2022/05/03 00:13:05;;;;;;;8.25;6.85;;;;;;;;;;5026409;28;20025;-57
2022/05/03 00:15:33;;;;;;;10.23;7.40;;;;;;;;;;5018824;28;20373;-57
2022/05/03 00:18:00;;;;;;;10.55;7.22;;;;;;;;;;5024590;28;20567;-57
2022/05/03 00:20:26;;;;;;;12.60;7.25;;;;;;;;;;5022498;28;20508;-57
2022/05/03 00:22:54;;;;;;;9.93;7.43;;;;;;;;;;5022851;28;20426;-57
2022/05/03 00:25:20;;;;;;;10.63;7.40;;;;;;;;;;5024141;28;20095;-57
2022/05/03 00:27:46;;;;;;;10.23;7.60;;;;;;;;;;5026353;28;20037;-57
2022/05/03 00:30:12;;;;;;;10.32;7.18;;;;;;;;;;5016596;28;20099;-56
2022/05/03 00:32:41;;;;;;;10.60;7.60;;;;;;;;;;5022458;28;20057;-56
2022/05/03 00:35:11;;;;;;;9.73;8.00;;;;;;;;;;5024593;28;21073;-57
2022/05/03 00:37:37;;;;;;;11.10;7.47;;;;;;;;;;5019691;28;20168;-57
2022/05/03 00:40:04;;;;;;;11.80;7.55;;;;;;;;;;5021578;28;20084;-57
2022/05/03 00:42:36;;;;;;;11.93;7.63;;;;;;;;;;5023908;28;20088;-56
2022/05/03 00:45:16;;;;;;;9.27;7.50;;;;;;;;;;5025355;28;20075;-56
2022/05/03 00:47:52;;;;;;;10.50;8.10;;;;;;;;;;5019197;28;20025;-57
2022/05/03 00:50:37;;;;;;;10.02;8.15;;;;;;;;;;5025974;28;20107;-56
2022/05/03 00:53:21;;;;;;;10.20;7.45;;;;;;;;;;5020480;28;20079;-55
2022/05/03 00:56:12;;;;;;;9.82;7.60;;;;;;;;;;5019700;28;20389;-57
2022/05/03 00:58:51;;;;;;;12.10;7.70;;;;;;;;;;5020795;28;20076;-58
2022/05/03 01:01:17;;;;;;;11.60;7.95;;;;;;;;;;5025324;28;20025;-57
2022/05/03 01:03:43;;;;;;;9.98;7.30;;;;;;;;;;5022998;28;20455;-57
2022/05/03 01:06:22;;;;;;;8.73;7.57;;;;;;;;;;5017702;28;20029;-56
2022/05/03 01:08:54;;;;;;;11.85;7.80;;;;;;;;;;5019753;28;20030;-56
2022/05/03 01:11:38;;;;;;;10.10;7.90;;;;;;;;;;5016578;28;20068;-56
2022/05/03 01:14:19;;;;;;;9.23;7.32;;;;;;;;;;5021550;28;20550;-56
2022/05/03 01:17:15;;;;;;;14.68;8.07;;;;;;;;;;5017080;28;20358;-57
2022/05/03 01:19:44;;;;;;;10.63;7.35;;;;;;;;;;5022422;28;20037;-57
2022/05/03 01:22:17;;;;;;;9.75;7.70;;;;;;;;;;5023926;28;20082;-57
2022/05/03 01:24:53;;;;;;;9.18;7.32;;;;;;;;;;5023634;28;20036;-57
2022/05/03 01:27:37;;;;;;;11.57;7.70;;;;;;;;;;5021070;28;20029;-56
2022/05/03 01:30:03;;;;;;;9.70;7.25;;;;;;;;;;5016901;28;20064;-57
2022/05/03 01:32:32;;;;;;;12.18;7.35;;;;;;;;;;5022153;28;20062;-57
2022/05/03 01:34:58;;;;;;;14.75;7.43;;;;;;;;;;5022430;28;21257;-57
2022/05/03 01:37:39;;;;;;;10.60;7.65;;;;;;;;;;5022143;28;20377;-57
2022/05/03 01:40:07;;;;;;;11.63;8.13;;;;;;;;;;5024252;28;20108;-56
2022/05/03 01:42:45;;;;;;;11.10;7.60;;;;;;;;;;5023863;28;20037;-57
2022/05/03 01:45:12;;;;;;;11.30;7.80;;;;;;;;;;5025037;28;20116;-55
2022/05/03 01:47:53;;;;;;;11.05;7.63;;;;;;;;;;5023872;28;20075;-56
2022/05/03 01:50:30;;;;;;;11.00;7.72;;;;;;;;;;5017380;28;20452;-56
2022/05/03 01:53:05;;;;;;;11.02;7.53;;;;;;;;;;5023605;28;20025;-56
2022/05/03 01:55:36;;;;;;;10.57;7.03;;;;;;;;;;5026544;28;20021;-56
2022/05/03 01:58:08;;;;;;;12.52;7.60;;;;;;;;;;5022434;28;20355;-57
2022/05/03 02:00:35;;;;;;;11.38;7.93;;;;;;;;;;5023497;28;20021;-57
2022/05/03 02:03:22;;;;;;;9.30;7.35;;;;;;;;;;5021685;28;20485;-56
2022/05/03 02:06:00;;;;;;;10.30;7.70;;;;;;;;;;5022220;28;20056;-56
2022/05/03 02:08:37;;;;;;;10.13;7.13;;;;;;;;;;5024059;28;20158;-57
2022/05/03 02:11:03;;;;;;;11.27;6.82;;;;;;;;;;5024148;28;20056;-56
2022/05/03 02:16:31;;;;;;;9.68;7.40;;;;;;;;;;5026259;28;20044;-57
2022/05/03 02:19:06;;;;;;;10.27;6.88;;;;;;;;;;5021476;28;20469;-57
2022/05/03 02:21:37;;;;;;;10.52;7.13;;;;;;;;;;5022673;28;20516;-56
2022/05/03 02:24:06;;;;;;;11.60;7.47;;;;;;;;;;5023271;28;20108;-57
2022/05/03 02:26:38;;;;;;;11.25;6.78;;;;;;;;;;5020977;28;20459;-57
2022/05/03 02:29:07;;;;;;;11.18;7.20;;;;;;;;;;5022890;28;20115;-56
2022/05/03 02:31:36;;;;;;;10.48;7.13;;;;;;;;;;5021721;28;20365;-56
2022/05/03 02:34:22;;;;;;;12.07;7.35;;;;;;;;;;5019693;28;20104;-56
2022/05/03 02:36:54;;;;;;;10.52;7.15;;;;;;;;;;5023368;28;20022;-57
2022/05/03 02:39:21;;;;;;;10.73;7.05;;;;;;;;;;5023693;28;20036;-57
2022/05/03 02:41:49;;;;;;;9.93;6.68;;;;;;;;;;5022826;28;20025;-57
2022/05/03 02:44:15;;;;;;;9.15;7.00;;;;;;;;;;5021872;28;20033;-57
2022/05/03 02:46:56;;;;;;;11.35;6.47;;;;;;;;;;5025166;28;20079;-56
2022/05/03 02:49:39;;;;;;;9.57;6.85;;;;;;;;;;5023107;28;20021;-56
2022/05/03 02:52:09;;;;;;;9.52;6.43;;;;;;;;;;5024137;28;20022;-57
2022/05/03 02:54:42;;;;;;;8.50;6.35;;;;;;;;;;5020360;28;20366;-56
2022/05/03 02:57:16;;;;;;;10.55;7.32;;;;;;;;;;5019407;28;20444;-57
2022/05/03 03:02:36;;;;;;;11.73;6.82;;;;;;;;;;5021313;28;20048;-57
2022/05/03 03:05:06;;;;;;;7.32;6.10;;;;;;;;;;5020672;28;20544;-57
2022/05/03 03:07:36;;;;;;;11.48;6.63;;;;;;;;;;5023102;28;20022;-56
2022/05/03 03:10:06;;;;;;;7.75;6.40;;;;;;;;;;5024570;28;20095;-55
2022/05/03 03:12:35;;;;;;;10.02;6.30;;;;;;;;;;5026109;28;20496;-56
2022/05/03 03:15:04;;;;;;;10.88;6.00;;;;;;;;;;5021312;28;20064;-57
2022/05/03 03:17:33;;;;;;;10.77;6.40;;;;;;;;;;5019602;28;20116;-57
2022/05/03 03:20:03;;;;;;;8.00;6.18;;;;;;;;;;5027356;28;20033;-57
2022/05/03 03:22:32;;;;;;;7.72;6.38;;;;;;;;;;5023008;28;20025;-56
2022/05/03 03:24:59;;;;;;;8.45;5.90;;;;;;;;;;5026712;28;20033;-57
2022/05/03 03:27:26;;;;;;;9.70;6.18;;;;;;;;;;5025494;28;20445;-57
2022/05/03 03:29:55;;;;;;;8.57;6.03;;;;;;;;;;5026263;28;20074;-57
2022/05/03 03:32:25;;;;;;;8.20;5.88;;;;;;;;;;5025250;28;20590;-55
2022/05/03 03:34:51;;;;;;;10.88;6.53;;;;;;;;;;5025173;28;20029;-57
2022/05/03 03:37:19;;;;;;;7.88;6.18;;;;;;;;;;5024382;28;20030;-56
2022/05/03 03:39:45;;;;;;;8.23;5.72;;;;;;;;;;5026659;28;20034;-57
2022/05/03 03:42:11;;;;;;;8.00;6.03;;;;;;;;;;5023913;28;20052;-56
2022/05/03 03:44:37;;;;;;;10.07;5.93;;;;;;;;;;5026495;28;20040;-56
2022/05/03 03:47:04;;;;;;;8.88;6.00;;;;;;;;;;5025262;28;20095;-57
2022/05/03 03:49:30;;;;;;;7.60;5.47;;;;;;;;;;5026331;28;20029;-57
2022/05/03 03:51:57;;;;;;;6.75;5.45;;;;;;;;;;5025807;28;20087;-56
2022/05/03 03:54:24;;;;;;;9.30;6.30;;;;;;;;;;5028321;28;20041;-56
2022/05/03 03:56:51;;;;;;;7.05;5.53;;;;;;;;;;5018929;28;20029;-56
2022/05/03 03:59:18;;;;;;;6.50;5.53;;;;;;;;;;5025023;28;20052;-57
2022/05/03 04:01:44;;;;;;;9.88;5.78;;;;;;;;;;5026840;28;20428;-56
2022/05/03 04:04:11;;;;;;;8.45;6.07;;;;;;;;;;5024034;28;20044;-56
2022/05/03 04:06:37;;;;;;;7.78;5.57;;;;;;;;;;5026920;28;20548;-55
2022/05/03 04:09:03;;;;;;;7.25;5.85;;;;;;;;;;5024566;28;20029;-56
2022/05/03 04:11:41;;;;;;;10.40;6.25;;;;;;;;;;5026286;28;20621;-57
2022/05/03 04:14:07;;;;;;;8.52;6.13;;;;;;;;;;5020700;28;20108;-57
2022/05/03 04:16:33;;;;;;;9.60;6.38;;;;;;;;;;5025374;28;20030;-56
2022/05/03 04:18:59;;;;;;;9.57;6.07;;;;;;;;;;5024442;28;20032;-57
2022/05/03 04:21:25;;;;;;;7.70;5.53;;;;;;;;;;5023095;28;20025;-56
2022/05/03 04:23:51;;;;;;;9.38;6.53;;;;;;;;;;5026963;28;20025;-57
2022/05/03 04:26:17;;;;;;;10.93;6.13;;;;;;;;;;5024339;28;20591;-57
2022/05/03 04:28:43;;;;;;;8.23;6.20;;;;;;;;;;5020228;28;20117;-56
2022/05/03 04:31:09;;;;;;;8.82;6.13;;;;;;;;;;5025558;28;20376;-56
2022/05/03 04:33:35;;;;;;;10.27;6.35;;;;;;;;;;5024099;28;20021;-57
2022/05/03 04:36:01;;;;;;;8.52;5.80;;;;;;;;;;5022954;28;20100;-56
2022/05/03 04:38:27;;;;;;;11.48;6.28;;;;;;;;;;5023477;28;20029;-56
2022/05/03 04:40:59;;;;;;;9.10;5.85;;;;;;;;;;5026946;28;20109;-56
2022/05/03 04:43:25;;;;;;;7.95;6.00;;;;;;;;;;5023807;28;20026;-57
2022/05/03 04:45:51;;;;;;;9.63;6.22;;;;;;;;;;5025510;28;20439;-58
2022/05/03 04:48:18;;;;;;;8.25;6.20;;;;;;;;;;5025745;28;20069;-56
2022/05/03 04:50:44;;;;;;;9.32;6.03;;;;;;;;;;5025155;28;20029;-57
2022/05/03 04:53:10;;;;;;;10.25;6.47;;;;;;;;;;5021621;28;20125;-56
2022/05/03 04:55:39;;;;;;;7.95;6.15;;;;;;;;;;5025070;28;20029;-57
2022/05/03 04:58:05;;;;;;;9.48;6.82;;;;;;;;;;5024380;28;20018;-56
2022/05/03 05:00:31;;;;;;;10.50;5.97;;;;;;;;;;5026253;28;20447;-57
2022/05/03 05:02:57;;;;;;;7.70;6.20;;;;;;;;;;5022057;28;20043;-57
2022/05/03 05:05:23;;;;;;;11.38;6.68;;;;;;;;;;5023257;28;20033;-56
2022/05/03 05:07:49;;;;;;;10.63;6.57;;;;;;;;;;5021459;28;20045;-56
2022/05/03 05:10:24;;;;;;;8.82;6.40;;;;;;;;;;5021812;28;20030;-56
2022/05/03 05:12:56;;;;;;;7.85;5.55;;;;;;;;;;5024589;28;20029;-57
2022/05/03 05:15:25;;;;;;;9.75;6.32;;;;;;;;;;5016770;28;20409;-57
2022/05/03 05:17:52;;;;;;;8.20;6.28;;;;;;;;;;5022219;28;20025;-58
2022/05/03 05:20:18;;;;;;;9.80;5.85;;;;;;;;;;5023682;28;20393;-57
2022/05/03 05:22:44;;;;;;;10.82;6.47;;;;;;;;;;5021942;28;20057;-58
2022/05/03 05:25:10;;;;;;;9.48;6.18;;;;;;;;;;5018582;28;20043;-58
2022/05/03 05:27:36;;;;;;;8.10;6.05;;;;;;;;;;5024499;28;20037;-56
2022/05/03 05:30:04;;;;;;;9.90;6.40;;;;;;;;;;5024144;28;20113;-57
2022/05/03 05:32:30;;;;;;;9.13;6.60;;;;;;;;;;5018956;28;20088;-57
2022/05/03 05:34:56;;;;;;;9.30;6.47;;;;;;;;;;5024558;28;20268;-58
2022/05/03 05:37:22;;;;;;;12.10;6.47;;;;;;;;;;5022904;28;20466;-58
2022/05/03 05:39:48;;;;;;;8.13;6.15;;;;;;;;;;5019274;28;20397;-57
2022/05/03 05:42:14;;;;;;;8.57;6.10;;;;;;;;;;5020050;28;20037;-57
2022/05/03 05:44:40;;;;;;;10.23;6.32;;;;;;;;;;5023574;28;20033;-57
2022/05/03 05:47:06;;;;;;;8.73;6.40;;;;;;;;;;5017516;28;20025;-57
2022/05/03 05:49:32;;;;;;;11.90;6.32;;;;;;;;;;5018436;28;20485;-57
2022/05/03 05:54:43;;;;;;;8.43;5.97;;;;;;;;;;5020038;28;20440;-57
2022/05/03 05:57:09;;;;;;;8.50;6.30;;;;;;;;;;5023457;28;20025;-57
2022/05/03 05:59:35;;;;;;;7.95;6.10;;;;;;;;;;5020649;28;20085;-57
2022/05/03 06:02:01;;;;;;;8.60;6.47;;;;;;;;;;5019558;28;20072;-58
2022/05/03 06:04:27;;;;;;;10.82;6.18;;;;;;;;;;5020105;28;20037;-56
2022/05/03 06:06:54;;;;;;;8.38;6.07;;;;;;;;;;5020863;28;20025;-59
2022/05/03 06:09:20;;;;;;;9.80;6.22;;;;;;;;;;5023193;28;20033;-58
2022/05/03 06:11:46;;;;;;;8.13;6.15;;;;;;;;;;5023037;28;20018;-57
2022/05/03 06:14:11;;;;;;;11.45;6.35;;;;;;;;;;5024222;28;20029;-57
2022/05/03 06:16:51;;;;;;;9.45;6.10;;;;;;;;;;5017380;28;20029;-57
2022/05/03 06:19:17;;;;;;;10.82;7.25;;;;;;;;;;5020340;28;20434;-58
2022/05/03 06:21:43;;;;;;;8.70;6.18;;;;;;;;;;5021942;28;20025;-58
2022/05/03 06:24:09;;;;;;;11.00;6.55;;;;;;;;;;5020785;28;20374;-58
2022/05/03 06:26:35;;;;;;;11.68;5.78;;;;;;;;;;5020956;28;20073;-58
2022/05/03 06:29:01;;;;;;;11.20;5.80;;;;;;;;;;5021462;28;20106;-59
2022/05/03 06:31:28;;;;;;;11.55;5.68;;;;;;;;;;5018611;28;20029;-57
2022/05/03 06:33:55;;;;;;;8.27;5.75;;;;;;;;;;5022487;28;20029;-56
2022/05/03 06:36:22;;;;;;;6.93;5.13;;;;;;;;;;5026811;28;20225;-57
2022/05/03 06:38:48;;;;;;;8.52;5.13;;;;;;;;;;5019153;28;20037;-58
2022/05/03 06:41:16;;;;;;;8.70;5.47;;;;;;;;;;5021042;28;20021;-58
2022/05/03 06:43:42;;;;;;;10.65;5.45;;;;;;;;;;5021743;28;20052;-57
2022/05/03 06:46:08;;;;;;;10.10;5.45;;;;;;;;;;5024497;28;20130;-56
2022/05/03 06:48:34;;;;;;;9.07;5.25;;;;;;;;;;5029500;28;20041;-58
2022/05/03 06:51:00;;;;;;;7.30;4.60;;;;;;;;;;5026074;28;20029;-57
2022/05/03 06:53:26;;;;;;;6.75;4.35;;;;;;;;;;5027421;28;20033;-58
2022/05/03 06:55:52;;;;;;;6.28;3.67;;;;;;;;;;5023144;28;20022;-58
2022/05/03 06:58:18;;;;;;;4.88;3.42;;;;;;;;;;5026886;28;20497;-56
2022/05/03 07:00:44;;;;;;;7.25;3.53;;;;;;;;;;5024474;28;20038;-57
2022/05/03 07:03:10;;;;;;;5.18;3.78;;;;;;;;;;5022114;28;20021;-57
2022/05/03 07:05:36;;;;;;;8.02;3.25;;;;;;;;;;5026873;28;20029;-58
2022/05/03 07:08:02;;;;;;;5.28;3.45;;;;;;;;;;5021603;28;20038;-57
2022/05/03 07:10:28;;;;;;;5.32;3.28;;;;;;;;;;5026441;28;20120;-58
2022/05/03 07:12:54;;;;;;;9.40;3.25;;;;;;;;;;5026349;28;20097;-57
2022/05/03 07:15:20;;;;;;;14.52;8.40;;;;;;;;;;5024352;28;20036;-58
2022/05/03 07:23:16;;;;;;;5.45;3.20;;;;;;;;;;5024334;28;20043;-57
2022/05/03 07:25:44;;;;;;;7.82;3.72;;;;;;;;;;5027377;28;20026;-57
2022/05/03 07:28:10;;;;;;;8.88;3.03;;;;;;;;;;5024183;28;20528;-56
2022/05/03 07:30:36;;;;;;;6.45;3.40;;;;;;;;;;5025490;28;20435;-57
2022/05/03 07:33:02;;;;;;;5.40;3.55;;;;;;;;;;5024927;28;20021;-57
2022/05/03 07:35:28;;;;;;;5.28;3.15;;;;;;;;;;5026009;28;20029;-58
2022/05/03 07:37:54;;;;;;;6.90;3.40;;;;;;;;;;5025769;28;20029;-58
2022/05/03 07:40:21;;;;;;;7.68;3.70;;;;;;;;;;5027523;28;20057;-57
2022/05/03 07:42:47;;;;;;;22.13;13.57;;;;;;;;;;5024751;28;20041;-57
2022/05/03 07:45:13;;;;;;;8.85;3.60;;;;;;;;;;5021719;28;20026;-58
2022/05/03 07:47:39;;;;;;;8.57;3.70;;;;;;;;;;5026440;28;20030;-56
2022/05/03 07:50:06;;;;;;;10.52;3.55;;;;;;;;;;5023957;28;20039;-58
2022/05/03 07:52:32;;;;;;;8.98;2.72;;;;;;;;;;5020966;28;20452;-58
2022/05/03 07:54:58;;;;;;;13.13;3.05;;;;;;;;;;5018855;28;20033;-56
2022/05/03 07:57:25;;;;;;;6.13;2.83;;;;;;;;;;5021098;28;20053;-57
2022/05/03 07:59:54;;;;;;;7.97;3.08;;;;;;;;;;5025162;28;20432;-56
2022/05/03 08:02:20;;;;;;;4.18;2.47;;;;;;;;;;5020230;28;20635;-58
2022/05/03 08:04:46;;;;;;;7.20;2.65;;;;;;;;;;5026645;28;20116;-58
2022/05/03 08:07:12;;;;;;;5.88;2.47;;;;;;;;;;5018914;28;20026;-57
2022/05/03 08:09:38;;;;;;;6.72;2.42;;;;;;;;;;5021786;28;20049;-57
2022/05/03 08:12:05;;;;;;;4.82;2.60;;;;;;;;;;5024719;28;20502;-58
2022/05/03 08:14:31;;;;;;;4.90;2.40;;;;;;;;;;5028460;28;20022;-57
2022/05/03 08:16:57;;;;;;;4.13;2.30;;;;;;;;;;5026934;28;20028;-58
2022/05/03 08:19:23;;;;;;;6.05;2.40;;;;;;;;;;5021708;28;20029;-58
2022/05/03 08:21:49;;;;;;;6.43;2.72;;;;;;;;;;5023394;28;20048;-57
2022/05/03 08:24:15;;;;;;;4.32;2.55;;;;;;;;;;5023568;28;20021;-57
2022/05/03 08:26:42;;;;;;;3.55;2.50;;;;;;;;;;5019169;28;20756;-57
2022/05/03 08:29:08;;;;;;;4.97;1.95;;;;;;;;;;5023439;28;20081;-58
2022/05/03 08:31:34;;;;;;;8.20;2.20;;;;;;;;;;5026087;28;20318;-58
2022/05/03 08:34:02;;;;;;;4.47;1.92;;;;;;;;;;5024848;28;20261;-59
2022/05/03 08:36:29;;;;;;;6.95;2.70;;;;;;;;;;5021268;28;20032;-59
2022/05/03 08:44:15;;;;;;;3.65;2.50;;;;;;;;;;5026432;28;20140;-57
2022/05/03 08:46:42;;;;;;;6.03;2.50;;;;;;;;;;5022177;28;20540;-57
2022/05/03 08:49:13;;;;;;;3.92;2.40;;;;;;;;;;5024380;28;20303;-59
2022/05/03 08:51:40;;;;;;;5.47;2.53;;;;;;;;;;5024502;28;20032;-58
2022/05/03 08:54:06;;;;;;;2.75;2.22;;;;;;;;;;5025683;28;20025;-58
2022/05/03 08:56:32;;;;;;;4.22;2.70;;;;;;;;;;5017288;28;20167;-59
2022/05/03 08:58:58;;;;;;;5.35;2.55;;;;;;;;;;5021769;28;20861;-58
2022/05/03 09:01:24;;;;;;;7.65;2.40;;;;;;;;;;5025716;28;20123;-58
2022/05/03 09:03:51;;;;;;;4.63;2.33;;;;;;;;;;5015865;28;20089;-58
2022/05/03 09:06:18;;;;;;;5.63;2.42;;;;;;;;;;5018133;28;20099;-58
2022/05/03 09:08:47;;;;;;;4.50;2.53;;;;;;;;;;5020921;28;20382;-58
2022/05/03 09:11:17;;;;;;;9.65;3.42;;;;;;;;;;5025517;28;20048;-59
2022/05/03 09:13:43;;;;;;;4.65;2.95;;;;;;;;;;5021018;28;20515;-57
2022/05/03 09:16:20;;;;;;;4.03;2.53;;;;;;;;;;5015546;28;20057;-59
2022/05/03 09:18:46;;;;;;;4.95;2.65;;;;;;;;;;5024448;28;20424;-57
2022/05/03 09:24:08;;;;;;;4.90;2.85;;;;;;;;;;5023271;28;20060;-59
2022/05/03 09:26:34;;;;;;;6.72;2.80;;;;;;;;;;5023532;28;20065;-59
2022/05/03 09:29:08;;;;;;;4.90;2.40;;;;;;;;;;5018401;28;20040;-59
2022/05/03 09:31:39;;;;;;;5.35;2.67;;;;;;;;;;5024169;28;20033;-59
2022/05/03 09:34:23;;;;;;;5.57;2.58;;;;;;;;;;5023136;28;20102;-58
2022/05/03 09:36:49;;;;;;;8.98;2.95;;;;;;;;;;5022744;28;20109;-57
2022/05/03 09:39:28;;;;;;;6.60;2.72;;;;;;;;;;5023427;28;20112;-58
2022/05/03 09:42:06;;;;;;;4.30;2.50;;;;;;;;;;5022483;28;20025;-58
2022/05/03 09:44:36;;;;;;;4.07;2.50;;;;;;;;;;5025720;28;20112;-58
2022/05/03 09:47:06;;;;;;;5.90;2.45;;;;;;;;;;5019450;28;20032;-58
2022/05/03 09:49:36;;;;;;;5.65;2.30;;;;;;;;;;5019170;28;20041;-58
2022/05/03 09:52:03;;;;;;;5.03;2.50;;;;;;;;;;5021501;28;20075;-58
2022/05/03 09:54:29;;;;;;;6.68;2.72;;;;;;;;;;5024880;28;20033;-58
2022/05/03 09:56:57;;;;;;;3.33;2.33;;;;;;;;;;5015725;28;20061;-58
2022/05/03 09:59:25;;;;;;;3.92;2.22;;;;;;;;;;5023339;28;20049;-59
2022/05/03 10:01:51;;;;;;;2.67;2.20;;;;;;;;;;5023050;28;20029;-58
2022/05/03 10:04:17;;;;;;;5.07;2.20;;;;;;;;;;5023597;28;20543;-59
2022/05/03 10:06:43;;;;;;;4.40;2.30;;;;;;;;;;5025590;28;20529;-58
2022/05/03 10:09:11;;;;;;;4.55;2.45;;;;;;;;;;5023892;28;20100;-58
2022/05/03 10:11:37;;;;;;;4.85;2.00;;;;;;;;;;5021223;28;20031;-58
2022/05/03 10:14:03;;;;;;;5.90;2.08;;;;;;;;;;5021871;28;20018;-57
2022/05/03 10:22:02;;;;;;;3.45;1.75;;;;;;;;;;5023869;28;20122;-59
2022/05/03 10:24:29;;;;;;;3.13;1.77;;;;;;;;;;5008375;28;20057;-58
2022/05/03 10:27:01;;;;;;;2.95;1.70;;;;;;;;;;5024456;28;20028;-58
2022/05/03 10:29:28;;;;;;;3.95;2.50;;;;;;;;;;5028634;28;21291;-58
2022/05/03 10:32:07;;;;;;;3.45;2.05;;;;;;;;;;5028511;28;20110;-58
2022/05/03 10:34:47;;;;;;;2.88;1.90;;;;;;;;;;5026628;28;20189;-57
2022/05/03 10:37:16;;;;;;;3.10;1.88;;;;;;;;;;5025181;28;20025;-59
2022/05/03 10:40:01;;;;;;;3.05;1.75;;;;;;;;;;5017617;28;20116;-58
2022/05/03 10:42:28;;;;;;;3.85;2.10;;;;;;;;;;5019256;28;20113;-59
2022/05/03 10:44:53;;;;;;;2.78;1.70;;;;;;;;;;5024180;28;20037;-59
2022/05/03 10:47:21;;;;;;;2.83;1.80;;;;;;;;;;5021333;28;20033;-59
2022/05/03 10:50:05;;;;;;;3.15;1.90;;;;;;;;;;5029467;28;20037;-58
2022/05/03 10:52:31;;;;;;;3.05;1.90;;;;;;;;;;5024462;28;20112;-57
2022/05/03 10:55:04;;;;;;;2.08;1.73;;;;;;;;;;5026604;28;20426;-59
2022/05/03 10:57:30;;;;;;;3.35;2.10;;;;;;;;;;5026398;28;20017;-58
2022/05/03 10:59:57;;;;;;;2.63;1.85;;;;;;;;;;5027935;28;20060;-58
2022/05/03 11:02:23;;;;;;;3.08;1.75;;;;;;;;;;5024886;28;20555;-57
2022/05/03 11:05:08;;;;;;;2.38;1.85;;;;;;;;;;5025999;28;20103;-58
2022/05/03 11:07:34;;;;;;;3.97;2.20;;;;;;;;;;5024796;28;20036;-58
2022/05/03 11:10:20;;;;;;;4.07;2.08;;;;;;;;;;5027603;28;20017;-58
2022/05/03 11:12:49;;;;;;;5.80;2.25;;;;;;;;;;5024271;28;20489;-58
2022/05/03 11:15:15;;;;;;;3.85;2.10;;;;;;;;;;5026781;28;20033;-59
2022/05/03 11:17:44;;;;;;;2.38;1.85;;;;;;;;;;5024600;28;20039;-59
2022/05/03 11:20:10;;;;;;;3.85;2.05;;;;;;;;;;5021987;28;20025;-58
2022/05/03 11:22:36;;;;;;;3.75;1.90;;;;;;;;;;5026170;28;20029;-57
2022/05/03 11:25:07;;;;;;;4.35;2.28;;;;;;;;;;5026327;28;20167;-58
2022/05/03 11:27:33;;;;;;;2.22;1.70;;;;;;;;;;5026070;28;20098;-58
2022/05/03 11:30:05;;;;;;;4.10;2.17;;;;;;;;;;5026733;28;20041;-57
2022/05/03 11:32:53;;;;;;;2.83;2.30;;;;;;;;;;5026031;28;20503;-59
2022/05/03 11:35:23;;;;;;;4.43;1.98;;;;;;;;;;5023290;28;20172;-58
2022/05/03 11:37:55;;;;;;;4.45;2.50;;;;;;;;;;5025062;28;20048;-57
2022/05/03 11:40:22;;;;;;;11.25;8.93;;;;;;;;;;5025936;28;20051;-57
2022/05/03 11:42:49;;;;;;;4.25;3.28;;;;;;;;;;5023733;28;20094;-58
2022/05/03 11:45:16;;;;;;;3.67;2.17;;;;;;;;;;5028249;28;20018;-58
2022/05/03 11:47:47;;;;;;;4.90;2.53;;;;;;;;;;5021609;28;20133;-58
2022/05/03 11:55:58;;;;;;;5.18;2.78;;;;;;;;;;5024381;28;20463;-58
2022/05/03 11:56:00;;;;;;;2.65;2.45;;;;;;;;;;5026709;28;20048;-58
2022/05/03 11:58:28;;;;;;;4.75;2.70;;;;;;;;;;5022343;28;20489;-57
2022/05/03 12:00:54;;;;;;;3.72;2.88;;;;;;;;;;5027677;28;20037;-58
2022/05/03 12:03:20;;;;;;;3.65;2.45;;;;;;;;;;5018420;28;20032;-59
2022/05/03 12:05:56;;;;;;;4.85;2.97;;;;;;;;;;5026668;28;20033;-58
2022/05/03 12:08:23;;;;;;;4.13;2.70;;;;;;;;;;5024567;28;20068;-58
2022/05/03 12:10:50;;;;;;;4.35;3.00;;;;;;;;;;5026180;28;20065;-58
2022/05/03 12:13:17;;;;;;;5.20;2.88;;;;;;;;;;5023549;28;20157;-58
2022/05/03 12:15:44;;;;;;;5.05;3.72;;;;;;;;;;5022223;28;20380;-58
2022/05/03 12:18:13;;;;;;;5.45;3.30;;;;;;;;;;5022444;28;20017;-59
2022/05/03 12:20:46;;;;;;;4.95;3.50;;;;;;;;;;5026663;28;20029;-59
2022/05/03 12:23:14;;;;;;;5.65;3.33;;;;;;;;;;5018107;28;20529;-58
2022/05/03 12:25:43;;;;;;;4.32;3.22;;;;;;;;;;5021287;28;20061;-58
2022/05/03 12:28:09;;;;;;;6.57;3.63;;;;;;;;;;5022819;28;20037;-58
2022/05/03 12:30:36;;;;;;;6.40;3.65;;;;;;;;;;5027467;28;20726;-58
2022/05/03 12:33:05;;;;;;;4.53;3.63;;;;;;;;;;5025485;28;20027;-59
2022/05/03 12:35:32;;;;;;;4.85;3.50;;;;;;;;;;5020340;28;20021;-59
2022/05/03 12:37:59;;;;;;;3.72;2.92;;;;;;;;;;5022474;28;20045;-57
2022/05/03 12:40:27;;;;;;;5.18;3.10;;;;;;;;;;5023785;28;20493;-58
2022/05/03 12:42:54;;;;;;;4.55;3.40;;;;;;;;;;5023504;28;20096;-58
2022/05/03 12:45:20;;;;;;;4.20;3.38;;;;;;;;;;5022241;28;20045;-58
2022/05/03 12:47:48;;;;;;;4.28;3.60;;;;;;;;;;5020646;28;20346;-58
2022/05/03 12:50:14;;;;;;;6.80;3.35;;;;;;;;;;5020891;28;20021;-59
2022/05/03 12:52:40;;;;;;;4.57;3.20;;;;;;;;;;5025107;28;20124;-58
2022/05/03 12:55:06;;;;;;;3.92;3.45;;;;;;;;;;5022183;28;20022;-59
2022/05/03 13:00:17;;;;;;;5.65;3.00;;;;;;;;;;5025478;28;20068;-59
2022/05/03 13:02:43;;;;;;;4.53;3.40;;;;;;;;;;5020984;28;20041;-58
2022/05/03 13:05:09;;;;;;;5.18;3.67;;;;;;;;;;5019479;28;20025;-58
2022/05/03 13:07:35;;;;;;;4.38;3.70;;;;;;;;;;5024132;28;20025;-59
2022/05/03 13:10:01;;;;;;;5.07;3.63;;;;;;;;;;5024281;28;20725;-58
2022/05/03 13:12:27;;;;;;;4.35;3.22;;;;;;;;;;5022626;28;20048;-59
2022/05/03 13:14:53;;;;;;;4.30;3.33;;;;;;;;;;5019201;28;20025;-59
2022/05/03 13:17:19;;;;;;;4.30;2.67;;;;;;;;;;5021564;28;20454;-59
2022/05/03 13:19:45;;;;;;;5.15;3.33;;;;;;;;;;5023739;28;20124;-59
2022/05/03 13:22:11;;;;;;;7.65;3.95;;;;;;;;;;5025319;28;20027;-58
2022/05/03 13:24:37;;;;;;;4.45;3.38;;;;;;;;;;5025178;28;20104;-58
2022/05/03 13:27:04;;;;;;;4.85;3.47;;;;;;;;;;5022598;28;20040;-62
2022/05/03 13:29:30;;;;;;;6.53;3.17;;;;;;;;;;5025326;28;20527;-59
2022/05/03 13:31:56;;;;;;;5.03;3.85;;;;;;;;;;5024003;28;20477;-58
2022/05/03 13:34:22;;;;;;;5.97;3.63;;;;;;;;;;5025436;28;20025;-58
2022/05/03 13:42:17;;;;;;;6.47;4.28;;;;;;;;;;5019422;28;20040;-58
2022/05/03 13:44:43;;;;;;;5.20;3.78;;;;;;;;;;5022879;28;20108;-58
2022/05/03 13:47:09;;;;;;;5.25;4.10;;;;;;;;;;5024365;28;20021;-60
2022/05/03 13:49:35;;;;;;;4.72;3.42;;;;;;;;;;5026077;28;20026;-58
2022/05/03 13:52:01;;;;;;;7.38;4.32;;;;;;;;;;5024009;28;20052;-58
2022/05/03 13:54:28;;;;;;;5.13;3.65;;;;;;;;;;5028971;28;20064;-58
2022/05/03 13:56:54;;;;;;;5.20;4.05;;;;;;;;;;5021261;28;20497;-59
2022/05/03 13:59:20;;;;;;;4.38;3.85;;;;;;;;;;5025371;28;20057;-59
2022/05/03 14:01:46;;;;;;;10.35;4.32;;;;;;;;;;5027435;28;20046;-58
2022/05/03 14:04:13;;;;;;;7.03;3.70;;;;;;;;;;5019509;28;20785;-59
2022/05/03 14:06:39;;;;;;;6.65;4.35;;;;;;;;;;5023568;28;20037;-58
2022/05/03 14:09:05;;;;;;;5.78;4.38;;;;;;;;;;5025003;28;20029;-59
2022/05/03 14:11:32;;;;;;;7.78;3.97;;;;;;;;;;5024958;28;20079;-60
2022/05/03 14:13:58;;;;;;;5.90;4.32;;;;;;;;;;5020941;28;20036;-58
2022/05/03 14:16:24;;;;;;;6.47;4.20;;;;;;;;;;5014792;28;20026;-58
2022/05/03 14:18:50;;;;;;;5.47;4.53;;;;;;;;;;5018103;28;20113;-59
2022/05/03 14:21:16;;;;;;;6.78;5.00;;;;;;;;;;5020303;28;20116;-59
2022/05/03 14:23:42;;;;;;;6.68;4.07;;;;;;;;;;5021703;28;20045;-59
2022/05/03 14:26:09;;;;;;;7.90;3.97;;;;;;;;;;5018631;28;20040;-58
2022/05/03 14:28:35;;;;;;;4.22;3.35;;;;;;;;;;5019366;28;20025;-59
2022/05/03 14:31:01;;;;;;;5.05;3.83;;;;;;;;;;5022595;28;20075;-59
2022/05/03 14:33:28;;;;;;;5.70;4.20;;;;;;;;;;5023959;28;20029;-59
2022/05/03 14:35:54;;;;;;;6.32;3.92;;;;;;;;;;5017493;28;20113;-58
2022/05/03 14:38:20;;;;;;;7.22;4.90;;;;;;;;;;5017967;28;20112;-57
2022/05/03 14:40:46;;;;;;;7.65;3.97;;;;;;;;;;5016926;28;20123;-58
2022/05/03 14:43:13;;;;;;;6.07;4.05;;;;;;;;;;5020136;28;20029;-57
2022/05/03 14:45:39;;;;;;;6.15;4.72;;;;;;;;;;5021216;28;20061;-57
2022/05/03 14:48:06;;;;;;;9.18;5.07;;;;;;;;;;5021830;28;20052;-59
2022/05/03 14:50:33;;;;;;;6.93;5.13;;;;;;;;;;5020847;28;20836;-59
2022/05/03 14:52:59;;;;;;;8.25;4.68;;;;;;;;;;5021727;28;20116;-58
2022/05/03 14:55:25;;;;;;;8.07;5.45;;;;;;;;;;5020261;28;20032;-57
2022/05/03 15:03:21;;;;;;;7.38;4.18;;;;;;;;;;5020403;28;20045;-58
2022/05/03 15:05:47;;;;;;;6.07;4.57;;;;;;;;;;5023268;28;20523;-58
2022/05/03 15:08:13;;;;;;;6.57;4.57;;;;;;;;;;5023675;28;20552;-60
2022/05/03 15:10:39;;;;;;;5.55;4.40;;;;;;;;;;5023640;28;20036;-59
2022/05/03 15:13:07;;;;;;;6.13;3.92;;;;;;;;;;5023980;28;20109;-59
2022/05/03 15:15:33;;;;;;;9.85;3.92;;;;;;;;;;5026614;28;20620;-59
2022/05/03 15:17:59;;;;;;;6.97;3.83;;;;;;;;;;5020535;28;20046;-58
2022/05/03 15:20:29;;;;;;;7.82;3.90;;;;;;;;;;5020362;28;20116;-58
2022/05/03 15:25:43;;;;;;;4.68;3.35;;;;;;;;;;5022158;28;20041;-59
2022/05/03 15:28:10;;;;;;;6.10;3.53;;;;;;;;;;5022601;28;20512;-58
2022/05/03 15:30:36;;;;;;;4.88;3.38;;;;;;;;;;5024194;28;20452;-58
2022/05/03 15:33:02;;;;;;;5.60;3.85;;;;;;;;;;5022378;28;20021;-59
2022/05/03 15:35:31;;;;;;;4.70;3.50;;;;;;;;;;5026050;28;20022;-58
2022/05/03 15:37:58;;;;;;;4.95;3.40;;;;;;;;;;5026717;28;20024;-57